Time;durP1;ratioP1;P1;durP2;ratioP2;P2;SDS_P1;SDS_P2;PMS_P1;PMS_P2;Temp;Humidity;BMP_temperature;BMP_pressure;BME280_temperature;BME280_humidity;BME280_pressure;Samples;Min_cycle;Max_cycle;Signal;HPM_P1;HPM_P2
2021/10/25 00:00:05;;;;;;;;;;;4.20;99.90;;;;;;5054306;28;19963;-68
2021/10/25 00:02:31;;;;;;;;;;;4.10;99.90;;;;;;5054022;28;19931;-67
2021/10/25 00:04:56;;;;;;;;;;;4.10;99.90;;;;;;5054152;28;19920;-68
2021/10/25 00:07:22;;;;;;;;;;;4.10;99.90;;;;;;5071914;28;19916;-68
2021/10/25 00:09:48;;;;;;;;;;;4.10;99.90;;;;;;5053720;28;20269;-67
2021/10/25 00:12:13;;;;;;;;;;;4.00;99.90;;;;;;5053485;28;19942;-68
2021/10/25 00:14:39;;;;;;;;;;;4.00;99.90;;;;;;5053380;28;20418;-67
2021/10/25 00:17:04;;;;;;;;;;;4.00;99.90;;;;;;5071308;28;20021;-68
2021/10/25 00:19:31;;;;;;;;;;;4.00;99.90;;;;;;5036568;28;20384;-71
2021/10/25 00:21:56;;;;;;;;;;;4.00;99.90;;;;;;5053003;28;19920;-68
2021/10/25 00:24:22;;;;;;;;;;;4.00;99.90;;;;;;5052452;28;20335;-69
2021/10/25 00:26:47;;;;;;;;;;;4.00;99.90;;;;;;5036339;28;20006;-68
2021/10/25 00:29:13;;;;;;;;;;;4.00;99.90;;;;;;5052965;28;19923;-67
2021/10/25 00:31:39;;;;;;;;;;;4.00;99.90;;;;;;5052827;28;19927;-67
2021/10/25 00:34:04;;;;;;;;;;;4.00;99.90;;;;;;5053086;28;19924;-67
2021/10/25 00:36:30;;;;;;;;;;;4.00;99.90;;;;;;5053305;28;19921;-67
2021/10/25 00:38:55;;;;;;;;;;;4.00;99.90;;;;;;5071004;28;19916;-67
2021/10/25 00:41:21;;;;;;;;;;;4.00;99.90;;;;;;5052741;28;19916;-68
2021/10/25 00:43:46;;;;;;;;;;;4.00;99.90;;;;;;5053554;28;19943;-68
2021/10/25 00:46:12;;;;;;;;;;;4.00;99.90;;;;;;5053486;28;19943;-67
2021/10/25 00:48:37;;;;;;;;;;;4.00;99.90;;;;;;5057011;28;20033;-68
2021/10/25 00:51:04;;;;;;;;;;;4.00;99.90;;;;;;5057739;28;19920;-68
2021/10/25 00:53:30;;;;;;;;;;;3.90;99.90;;;;;;5058074;28;19924;-67
2021/10/25 00:55:56;;;;;;;;;;;3.90;99.90;;;;;;5057667;28;19917;-67
2021/10/25 00:58:22;;;;;;;;;;;3.90;99.90;;;;;;5057547;28;19952;-68
2021/10/25 01:00:48;;;;;;;;;;;3.90;99.90;;;;;;5057494;28;20017;-68
2021/10/25 01:03:13;;;;;;;;;;;3.90;99.90;;;;;;5057456;28;20498;-67
2021/10/25 01:05:39;;;;;;;;;;;3.90;99.90;;;;;;5057742;28;19966;-68
2021/10/25 01:08:04;;;;;;;;;;;3.90;99.90;;;;;;5057190;28;20381;-67
2021/10/25 01:10:30;;;;;;;;;;;3.90;99.90;;;;;;5057372;28;20456;-68
2021/10/25 01:12:57;;;;;;;;;;;3.90;99.90;;;;;;5057315;28;20261;-68
2021/10/25 01:15:23;;;;;;;;;;;3.90;99.90;;;;;;5057611;28;20250;-68
2021/10/25 01:17:52;;;;;;;;;;;3.90;99.90;;;;;;5057552;28;19987;-67
2021/10/25 01:20:18;;;;;;;;;;;3.90;99.90;;;;;;5040435;28;19916;-67
2021/10/25 01:22:43;;;;;;;;;;;3.90;99.90;;;;;;5057036;28;20374;-68
2021/10/25 01:25:09;;;;;;;;;;;3.90;99.90;;;;;;5057046;28;20010;-67
2021/10/25 01:27:34;;;;;;;;;;;3.90;99.90;;;;;;5056920;28;19969;-68
2021/10/25 01:30:00;;;;;;;;;;;3.90;99.90;;;;;;5040410;28;20278;-68
2021/10/25 01:32:25;;;;;;;;;;;3.90;99.90;;;;;;5056901;28;19927;-68
2021/10/25 01:34:51;;;;;;;;;;;3.90;99.90;;;;;;5057372;28;19920;-68
2021/10/25 01:37:16;;;;;;;;;;;3.90;99.90;;;;;;5057112;28;20319;-67
2021/10/25 01:39:42;;;;;;;;;;;3.90;99.90;;;;;;5040295;28;19948;-67
2021/10/25 01:42:07;;;;;;;;;;;3.90;99.90;;;;;;5056648;28;20003;-67
2021/10/25 01:44:34;;;;;;;;;;;3.90;99.90;;;;;;5040075;28;19939;-68
2021/10/25 01:47:00;;;;;;;;;;;3.90;99.90;;;;;;5056577;28;19923;-68
2021/10/25 01:49:25;;;;;;;;;;;3.90;99.90;;;;;;5057018;28;19927;-68
2021/10/25 01:51:51;;;;;;;;;;;3.90;99.90;;;;;;5056637;28;19920;-67
2021/10/25 01:54:16;;;;;;;;;;;3.90;99.90;;;;;;5056817;28;20246;-68
2021/10/25 01:56:42;;;;;;;;;;;3.90;99.90;;;;;;5056551;28;19916;-67
2021/10/25 01:59:08;;;;;;;;;;;3.90;99.90;;;;;;5073765;28;19916;-68
2021/10/25 02:01:34;;;;;;;;;;;3.90;99.90;;;;;;5056332;28;19974;-67
2021/10/25 02:04:04;;;;;;;;;;;4.00;99.90;;;;;;5056274;28;19924;-68
2021/10/25 02:06:30;;;;;;;;;;;4.00;99.90;;;;;;5056174;28;19923;-68
2021/10/25 02:08:55;;;;;;;;;;;4.10;99.90;;;;;;5056493;28;20274;-67
2021/10/25 02:11:21;;;;;;;;;;;4.10;99.90;;;;;;5056279;28;19923;-67
2021/10/25 02:13:47;;;;;;;;;;;4.00;99.90;;;;;;5056296;28;19916;-68
2021/10/25 02:16:13;;;;;;;;;;;4.10;99.90;;;;;;5056181;28;19917;-68
2021/10/25 02:18:39;;;;;;;;;;;4.10;99.90;;;;;;5056031;28;20424;-68
2021/10/25 02:21:05;;;;;;;;;;;4.10;99.90;;;;;;5055892;28;20373;-68
2021/10/25 02:23:30;;;;;;;;;;;4.10;99.90;;;;;;5074158;28;19939;-68
2021/10/25 02:25:56;;;;;;;;;;;4.10;99.90;;;;;;5055990;28;19917;-67
2021/10/25 02:28:22;;;;;;;;;;;4.10;99.90;;;;;;5055916;28;19924;-67
2021/10/25 02:30:48;;;;;;;;;;;4.10;99.90;;;;;;5056230;28;19923;-67
2021/10/25 02:33:14;;;;;;;;;;;4.20;99.90;;;;;;5055763;28;19921;-68
2021/10/25 02:35:39;;;;;;;;;;;4.10;99.90;;;;;;5055969;28;19920;-68
2021/10/25 02:38:05;;;;;;;;;;;4.20;99.90;;;;;;5039175;28;19917;-68
2021/10/25 02:40:31;;;;;;;;;;;4.20;99.90;;;;;;5055261;28;19924;-68
2021/10/25 02:42:56;;;;;;;;;;;4.20;99.90;;;;;;5055845;28;19928;-68
2021/10/25 02:45:22;;;;;;;;;;;4.20;99.90;;;;;;5055801;28;20397;-68
2021/10/25 02:47:48;;;;;;;;;;;4.20;99.90;;;;;;5055858;28;19959;-68
2021/10/25 02:50:14;;;;;;;;;;;4.20;99.90;;;;;;5055514;28;19917;-68
2021/10/25 02:52:39;;;;;;;;;;;4.10;99.90;;;;;;5055693;28;19920;-68
2021/10/25 02:55:05;;;;;;;;;;;4.20;99.90;;;;;;5038832;28;19920;-67
2021/10/25 02:57:30;;;;;;;;;;;4.10;99.90;;;;;;5055643;28;19970;-68
2021/10/25 02:59:56;;;;;;;;;;;4.20;99.90;;;;;;5055415;28;20011;-67
2021/10/25 03:02:21;;;;;;;;;;;4.20;99.90;;;;;;5055258;28;19962;-68
2021/10/25 03:04:47;;;;;;;;;;;4.10;99.90;;;;;;5055399;28;20393;-68
2021/10/25 03:07:13;;;;;;;;;;;4.10;99.90;;;;;;5055023;28;19999;-68
2021/10/25 03:09:38;;;;;;;;;;;4.20;99.90;;;;;;5054096;28;19958;-67
2021/10/25 03:12:04;;;;;;;;;;;4.20;99.90;;;;;;5055475;28;19916;-68
2021/10/25 03:14:30;;;;;;;;;;;4.10;99.90;;;;;;5054993;28;20362;-68
2021/10/25 03:16:55;;;;;;;;;;;4.10;99.90;;;;;;5073254;28;20312;-68
2021/10/25 03:19:21;;;;;;;;;;;4.20;99.90;;;;;;5054780;28;19999;-68
2021/10/25 03:21:47;;;;;;;;;;;4.20;99.90;;;;;;5054768;28;19966;-68
2021/10/25 03:24:12;;;;;;;;;;;4.20;99.90;;;;;;5054714;28;19916;-68
2021/10/25 03:26:38;;;;;;;;;;;4.30;99.90;;;;;;5055102;28;19983;-68
2021/10/25 03:29:04;;;;;;;;;;;4.20;99.90;;;;;;5072618;28;19920;-68
2021/10/25 03:31:30;;;;;;;;;;;4.20;99.90;;;;;;5054766;28;20492;-68
2021/10/25 03:33:55;;;;;;;;;;;4.20;99.90;;;;;;5054650;28;20002;-67
2021/10/25 03:36:25;;;;;;;;;;;4.20;99.90;;;;;;5054997;28;20239;-68
2021/10/25 03:38:51;;;;;;;;;;;4.20;99.90;;;;;;5054741;28;20004;-68
2021/10/25 03:41:27;;;;;;;;;;;4.20;99.90;;;;;;5054453;28;20007;-68
2021/10/25 03:44:05;;;;;;;;;;;4.20;99.90;;;;;;5054517;28;19995;-68
2021/10/25 03:49:07;;;;;;;;;;;4.20;99.90;;;;;;5054664;28;19917;-68
2021/10/25 03:51:33;;;;;;;;;;;4.20;99.90;;;;;;5072499;28;19920;-68
2021/10/25 03:54:20;;;;;;;;;;;4.20;99.90;;;;;;5054730;28;19916;-68
2021/10/25 04:00:08;;;;;;;;;;;4.20;99.90;;;;;;5054300;28;20349;-68
2021/10/25 04:03:15;;;;;;;;;;;4.20;99.90;;;;;;5054460;28;19927;-68
2021/10/25 04:30:11;;;;;;;;;;;4.60;99.90;;;;;;5053756;28;20358;-67
2021/10/25 04:32:37;;;;;;;;;;;4.70;99.90;;;;;;5053823;28;20401;-68
2021/10/25 04:35:03;;;;;;;;;;;4.70;99.90;;;;;;5054111;28;20062;-67
2021/10/25 04:37:28;;;;;;;;;;;4.80;99.90;;;;;;5053797;28;19970;-68
2021/10/25 04:39:54;;;;;;;;;;;4.80;99.90;;;;;;5053495;28;19955;-68
2021/10/25 04:42:20;;;;;;;;;;;4.90;99.90;;;;;;5053628;28;19927;-68
2021/10/25 04:44:47;;;;;;;;;;;4.90;99.90;;;;;;5053621;28;19921;-68
2021/10/25 04:47:12;;;;;;;;;;;5.00;99.90;;;;;;5053830;28;20026;-68
2021/10/25 04:49:38;;;;;;;;;;;5.10;99.90;;;;;;5053632;28;19916;-68
2021/10/25 04:52:04;;;;;;;;;;;5.20;99.90;;;;;;5053599;28;19923;-68
2021/10/25 04:54:31;;;;;;;;;;;5.20;99.90;;;;;;5053749;28;19920;-68
2021/10/25 04:56:57;;;;;;;;;;;5.30;99.90;;;;;;5053447;28;19923;-68
2021/10/25 04:59:23;;;;;;;;;;;5.40;99.90;;;;;;5071669;28;19920;-68
2021/10/25 05:01:48;;;;;;;;;;;5.40;99.90;;;;;;5071414;28;19924;-68
2021/10/25 05:04:14;;;;;;;;;;;5.60;99.90;;;;;;5053682;28;19943;-68
2021/10/25 05:06:39;;;;;;;;;;;5.60;99.90;;;;;;5071449;28;19917;-68
2021/10/25 05:09:05;;;;;;;;;;;5.70;99.90;;;;;;5053817;28;19960;-68
2021/10/25 05:11:30;;;;;;;;;;;5.80;99.90;;;;;;5053430;28;20433;-68
2021/10/25 05:13:56;;;;;;;;;;;5.80;99.90;;;;;;5071533;28;19920;-68
2021/10/25 05:16:22;;;;;;;;;;;5.80;99.90;;;;;;5053144;28;19970;-68
2021/10/25 05:18:47;;;;;;;;;;;5.90;99.90;;;;;;5053360;28;19921;-68
2021/10/25 05:21:13;;;;;;;;;;;6.00;99.90;;;;;;5071343;28;19924;-68
2021/10/25 05:23:38;;;;;;;;;;;6.00;99.90;;;;;;5053344;28;20321;-68
2021/10/25 05:26:04;;;;;;;;;;;6.10;99.90;;;;;;5053256;28;20139;-68
2021/10/25 05:28:29;;;;;;;;;;;6.10;99.90;;;;;;5053152;28;19965;-68
2021/10/25 05:30:55;;;;;;;;;;;6.20;99.90;;;;;;5071335;28;19920;-68
2021/10/25 05:33:20;;;;;;;;;;;6.20;99.90;;;;;;5054337;28;20558;-68
2021/10/25 05:35:46;;;;;;;;;;;6.30;99.90;;;;;;5075094;28;19927;-68
2021/10/25 05:38:15;;;;;;;;;;;6.20;99.90;;;;;;5057243;28;19921;-68
2021/10/25 05:40:40;;;;;;;;;;;6.40;99.90;;;;;;5056842;28;19916;-68
2021/10/25 05:43:07;;;;;;;;;;;6.40;99.90;;;;;;5056771;28;19927;-68
2021/10/25 05:45:33;;;;;;;;;;;6.40;99.90;;;;;;5056949;28;20297;-68
2021/10/25 05:47:59;;;;;;;;;;;6.40;99.90;;;;;;5056868;28;19916;-68
2021/10/25 05:50:24;;;;;;;;;;;6.50;99.90;;;;;;5056700;28;19942;-68
2021/10/25 05:52:50;;;;;;;;;;;6.50;99.90;;;;;;5056738;28;19916;-68
2021/10/25 05:55:21;;;;;;;;;;;6.60;99.90;;;;;;5056534;28;20407;-68
2021/10/25 05:57:48;;;;;;;;;;;6.60;99.90;;;;;;5056535;28;20396;-68
2021/10/25 06:00:14;;;;;;;;;;;6.60;99.90;;;;;;5056700;28;19920;-68
2021/10/25 06:02:42;;;;;;;;;;;6.70;99.90;;;;;;5056398;28;19921;-68
2021/10/25 06:05:08;;;;;;;;;;;6.70;99.90;;;;;;5056338;28;19995;-68
2021/10/25 06:07:33;;;;;;;;;;;6.70;99.90;;;;;;5052660;28;20091;-68
2021/10/25 06:10:00;;;;;;;;;;;6.80;99.90;;;;;;5053031;28;20008;-68
2021/10/25 06:12:26;;;;;;;;;;;6.80;99.90;;;;;;5052688;28;20374;-68
2021/10/25 06:14:54;;;;;;;;;;;6.80;99.90;;;;;;5052872;28;19917;-68
2021/10/25 06:17:39;;;;;;;;;;;6.80;99.90;;;;;;5053161;28;19917;-68
2021/10/25 06:20:08;;;;;;;;;;;6.90;99.90;;;;;;5052905;28;19920;-68
2021/10/25 06:22:37;;;;;;;;;;;6.90;99.90;;;;;;5052713;28;19975;-68
2021/10/25 06:25:03;;;;;;;;;;;6.90;99.90;;;;;;5052624;28;19916;-68
2021/10/25 06:27:29;;;;;;;;;;;7.00;99.90;;;;;;5052325;28;19951;-68
2021/10/25 06:29:54;;;;;;;;;;;7.00;99.90;;;;;;5052651;28;19921;-68
2021/10/25 06:32:20;;;;;;;;;;;7.00;99.90;;;;;;5052484;28;19920;-68
2021/10/25 06:34:49;;;;;;;;;;;7.10;99.90;;;;;;5051993;28;19923;-68
2021/10/25 06:37:15;;;;;;;;;;;7.10;99.90;;;;;;5051875;28;20386;-68
2021/10/25 06:39:43;;;;;;;;;;;7.10;99.90;;;;;;5051479;28;19921;-68
2021/10/25 06:42:09;;;;;;;;;;;7.20;99.90;;;;;;5051863;28;20015;-68
2021/10/25 06:44:41;;;;;;;;;;;7.20;99.90;;;;;;5052115;28;19921;-68
2021/10/25 06:47:06;;;;;;;;;;;7.30;99.90;;;;;;5052045;28;20019;-68
2021/10/25 06:49:32;;;;;;;;;;;7.30;99.90;;;;;;5052513;28;20015;-68
2021/10/25 06:51:58;;;;;;;;;;;7.30;99.90;;;;;;5051040;28;19916;-68
2021/10/25 06:54:23;;;;;;;;;;;7.40;99.90;;;;;;5052534;28;19920;-68
2021/10/25 06:56:49;;;;;;;;;;;7.40;99.90;;;;;;5050939;28;19943;-68
2021/10/25 06:59:15;;;;;;;;;;;7.40;99.90;;;;;;5051149;28;19944;-68
2021/10/25 07:01:40;;;;;;;;;;;7.50;99.90;;;;;;5051017;28;19917;-68
2021/10/25 07:04:06;;;;;;;;;;;7.50;99.90;;;;;;5050994;28;19921;-68
2021/10/25 07:06:33;;;;;;;;;;;7.50;99.90;;;;;;5051642;28;19917;-68
2021/10/25 07:09:00;;;;;;;;;;;7.60;99.90;;;;;;5071998;28;19920;-68
2021/10/25 07:11:25;;;;;;;;;;;7.60;99.90;;;;;;5054082;28;19964;-68
2021/10/25 07:13:51;;;;;;;;;;;7.70;99.90;;;;;;5036918;28;20330;-68
2021/10/25 07:16:21;;;;;;;;;;;7.70;99.90;;;;;;5053995;28;20046;-68
2021/10/25 08:00:23;;;;;;;;;;;8.40;99.90;;;;;;5053133;28;20023;-68
2021/10/25 08:03:01;;;;;;;;;;;8.40;99.90;;;;;;5052637;28;20015;-68
2021/10/25 08:05:37;;;;;;;;;;;8.40;99.90;;;;;;5052901;28;19926;-68
2021/10/25 08:10:36;;;;;;;;;;;8.50;99.90;;;;;;5049742;28;19916;-68
2021/10/25 08:13:07;;;;;;;;;;;8.50;99.90;;;;;;5050154;28;19927;-68
2021/10/25 08:15:42;;;;;;;;;;;8.60;99.90;;;;;;5049939;28;20003;-69
2021/10/25 08:18:20;;;;;;;;;;;8.60;99.90;;;;;;5050016;28;20378;-68
2021/10/25 08:20:46;;;;;;;;;;;8.70;99.90;;;;;;5050953;28;20491;-68
2021/10/25 08:23:12;;;;;;;;;;;8.70;99.90;;;;;;5051292;28;20004;-69
2021/10/25 08:25:38;;;;;;;;;;;8.80;99.90;;;;;;5049848;28;19916;-68
2021/10/25 08:28:04;;;;;;;;;;;8.70;99.90;;;;;;5033199;28;20400;-69
2021/10/25 08:30:29;;;;;;;;;;;8.80;99.90;;;;;;5051303;28;19923;-68
2021/10/25 08:41:08;;;;;;;;;;;8.90;99.90;;;;;;5049551;28;20445;-68
2021/10/25 08:43:34;;;;;;;;;;;9.00;99.90;;;;;;5050899;28;19921;-68
2021/10/25 08:46:02;;;;;;;;;;;9.00;99.90;;;;;;5049381;28;20370;-69
2021/10/25 08:48:30;;;;;;;;;;;9.10;99.90;;;;;;5050825;28;19916;-69
2021/10/25 08:50:56;;;;;;;;;;;9.10;99.90;;;;;;5049613;28;20310;-69
2021/10/25 08:53:22;;;;;;;;;;;9.20;99.90;;;;;;5049866;28;19917;-68
2021/10/25 08:55:50;;;;;;;;;;;9.20;99.90;;;;;;5049929;28;19924;-69
2021/10/25 08:58:16;;;;;;;;;;;9.20;99.90;;;;;;5050210;28;19917;-68
2021/10/25 09:00:43;;;;;;;;;;;9.20;99.90;;;;;;5050070;28;19932;-68
2021/10/25 09:03:09;;;;;;;;;;;9.30;99.90;;;;;;5050159;28;19974;-68
2021/10/25 09:05:35;;;;;;;;;;;9.30;99.90;;;;;;5049961;28;19924;-69
2021/10/25 09:08:03;;;;;;;;;;;9.30;99.90;;;;;;5050486;28;19925;-69
2021/10/25 09:10:33;;;;;;;;;;;9.40;99.90;;;;;;5053887;28;20569;-69
2021/10/25 09:13:01;;;;;;;;;;;9.50;99.90;;;;;;5054005;28;20410;-69
2021/10/25 09:15:27;;;;;;;;;;;9.50;99.90;;;;;;5053791;28;19967;-68
2021/10/25 09:17:53;;;;;;;;;;;9.60;99.90;;;;;;5054283;28;20396;-68
2021/10/25 09:20:19;;;;;;;;;;;9.70;99.90;;;;;;5053474;28;19963;-68
2021/10/25 09:22:45;;;;;;;;;;;9.70;99.90;;;;;;5036654;28;20012;-69
2021/10/25 09:25:11;;;;;;;;;;;9.80;99.90;;;;;;5052928;28;19916;-69
2021/10/25 09:27:40;;;;;;;;;;;9.80;99.90;;;;;;5053297;28;19936;-69
2021/10/25 09:30:06;;;;;;;;;;;9.80;99.90;;;;;;5053112;28;19929;-69
2021/10/25 09:32:32;;;;;;;;;;;9.80;99.90;;;;;;5054595;28;20250;-69
2021/10/25 09:35:00;;;;;;;;;;;9.80;99.90;;;;;;5052727;28;19921;-68
2021/10/25 09:37:30;;;;;;;;;;;9.80;99.90;;;;;;5052726;28;19999;-68
2021/10/25 09:40:12;;;;;;;;;;;9.80;99.90;;;;;;5052855;28;20290;-69
2021/10/25 09:45:42;;;;;;;;;;;9.80;99.90;;;;;;5052617;28;19970;-68
2021/10/25 09:50:59;;;;;;;;;;;9.80;99.90;;;;;;5052493;28;19917;-68
2021/10/25 09:53:34;;;;;;;;;;;9.90;99.90;;;;;;5052329;28;20354;-69
2021/10/25 09:56:00;;;;;;;;;;;9.90;99.90;;;;;;5052779;28;19927;-69
2021/10/25 09:58:28;;;;;;;;;;;9.90;99.90;;;;;;5053461;28;19921;-69
2021/10/25 10:00:54;;;;;;;;;;;10.00;99.90;;;;;;5053188;28;20294;-69
2021/10/25 10:03:19;;;;;;;;;;;10.00;99.90;;;;;;5053122;28;19916;-69
2021/10/25 10:05:45;;;;;;;;;;;10.00;99.90;;;;;;5052893;28;19978;-69
2021/10/25 10:08:11;;;;;;;;;;;10.00;99.90;;;;;;5052903;28;19978;-69
2021/10/25 10:10:37;;;;;;;;;;;10.10;99.90;;;;;;5052901;28;19924;-69
2021/10/25 10:13:04;;;;;;;;;;;10.10;99.90;;;;;;5053207;28;19970;-69
2021/10/25 10:15:31;;;;;;;;;;;10.10;99.90;;;;;;5036399;28;20035;-69
2021/10/25 10:18:00;;;;;;;;;;;10.20;99.90;;;;;;5052680;28;19923;-69
2021/10/25 10:20:37;;;;;;;;;;;10.20;99.90;;;;;;5035774;28;19924;-69
2021/10/25 10:23:07;;;;;;;;;;;10.40;99.90;;;;;;5071843;23;20360;-69
2021/10/25 10:25:35;;;;;;;;;;;10.40;99.90;;;;;;5072681;28;19927;-68
2021/10/25 10:28:02;;;;;;;;;;;10.50;99.90;;;;;;5072504;28;19916;-68
2021/10/25 10:30:30;;;;;;;;;;;10.50;99.90;;;;;;5072759;28;19927;-68
2021/10/25 10:33:03;;;;;;;;;;;10.60;99.90;;;;;;5072705;28;19983;-68
2021/10/25 10:35:42;;;;;;;;;;;10.60;99.90;;;;;;5071956;28;19920;-68
2021/10/25 10:38:08;;;;;;;;;;;10.50;99.90;;;;;;5071327;28;19920;-68
2021/10/25 10:40:39;;;;;;;;;;;10.60;99.90;;;;;;5071083;28;19938;-69
2021/10/25 10:43:07;;;;;;;;;;;10.60;99.90;;;;;;5072498;28;19920;-68
2021/10/25 10:45:32;;;;;;;;;;;10.60;99.90;;;;;;5072686;28;20011;-68
2021/10/25 10:48:02;;;;;;;;;;;10.60;99.90;;;;;;5073797;28;19999;-68
2021/10/25 10:50:39;;;;;;;;;;;10.60;99.90;;;;;;5072376;28;19974;-68
2021/10/25 10:53:15;;;;;;;;;;;10.60;99.90;;;;;;5072410;28;19916;-68
2021/10/25 10:55:43;;;;;;;;;;;10.60;99.90;;;;;;5072187;28;19923;-68
2021/10/25 10:58:22;;;;;;;;;;;10.60;99.90;;;;;;5052419;28;19928;-68
2021/10/25 11:00:49;;;;;;;;;;;10.60;99.90;;;;;;5051987;28;20400;-68
2021/10/25 11:03:21;;;;;;;;;;;10.60;99.90;;;;;;5052090;28;20542;-68
2021/10/25 11:05:50;;;;;;;;;;;10.50;99.90;;;;;;5052115;28;19923;-68
2021/10/25 11:08:24;;;;;;;;;;;10.50;99.90;;;;;;5052045;28;19936;-68
2021/10/25 11:11:01;;;;;;;;;;;10.50;99.90;;;;;;5035377;28;19921;-68
2021/10/25 11:13:29;;;;;;;;;;;10.40;99.90;;;;;;5052075;28;19920;-68
2021/10/25 11:18:59;;;;;;;;;;;10.40;99.90;;;;;;5028637;28;20274;-68
2021/10/25 11:21:29;;;;;;;;;;;10.40;99.90;;;;;;5051773;28;19916;-68
2021/10/25 11:23:57;;;;;;;;;;;10.40;99.90;;;;;;5051717;28;19927;-68
2021/10/25 11:26:24;;;;;;;;;;;10.40;99.90;;;;;;5051680;28;19924;-68
2021/10/25 11:28:58;;;;;;;;;;;10.50;99.90;;;;;;5051777;28;19960;-70
2021/10/25 11:31:23;;;;;;;;;;;10.50;99.90;;;;;;5063980;28;19917;-68
2021/10/25 11:33:49;;;;;;;;;;;10.50;99.90;;;;;;5071215;28;19920;-68
2021/10/25 11:36:16;;;;;;;;;;;10.50;99.90;;;;;;5072750;28;19916;-68
2021/10/25 11:38:43;;;;;;;;;;;10.50;99.90;;;;;;5072719;28;20015;-68
2021/10/25 11:41:09;;;;;;;;;;;10.60;99.90;;;;;;5071316;28;19959;-68
2021/10/25 11:43:35;;;;;;;;;;;10.60;99.90;;;;;;5071206;28;19967;-68
2021/10/25 11:46:00;;;;;;;;;;;10.60;99.90;;;;;;5071117;28;19920;-68
2021/10/25 11:48:27;;;;;;;;;;;10.50;99.90;;;;;;5071081;28;19931;-68
2021/10/25 11:50:57;;;;;;;;;;;10.50;99.90;;;;;;5071408;28;19917;-68
2021/10/25 11:53:26;;;;;;;;;;;10.50;99.90;;;;;;5071416;28;19927;-69
2021/10/25 11:55:52;;;;;;;;;;;10.50;99.90;;;;;;5071548;28;19939;-68
2021/10/25 11:58:19;;;;;;;;;;;10.60;99.90;;;;;;5072482;28;20003;-68
2021/10/25 12:00:47;;;;;;;;;;;10.60;99.90;;;;;;5071003;28;19920;-68
2021/10/25 12:03:17;;;;;;;;;;;10.60;99.90;;;;;;5070928;28;19920;-68
2021/10/25 12:05:43;;;;;;;;;;;10.70;99.90;;;;;;5070918;28;19960;-68
2021/10/25 12:08:10;;;;;;;;;;;10.70;99.90;;;;;;5070774;28;19916;-68
2021/10/25 12:10:36;;;;;;;;;;;10.70;99.90;;;;;;5072245;28;20358;-68
2021/10/25 12:13:04;;;;;;;;;;;10.70;99.90;;;;;;5071005;28;19946;-68
2021/10/25 12:15:31;;;;;;;;;;;10.70;99.90;;;;;;5070878;28;19916;-68
2021/10/25 12:18:01;;;;;;;;;;;10.70;99.90;;;;;;5070747;28;19920;-68
2021/10/25 12:20:28;;;;;;;;;;;10.70;99.90;;;;;;5072036;28;19923;-69
2021/10/25 12:23:04;;;;;;;;;;;10.70;99.90;;;;;;5053856;28;19929;-68
2021/10/25 12:25:31;;;;;;;;;;;10.70;99.90;;;;;;5070729;28;19916;-68
2021/10/25 12:28:07;;;;;;;;;;;10.70;99.90;;;;;;5072073;28;20027;-68
2021/10/25 12:30:32;;;;;;;;;;;10.80;99.90;;;;;;5054019;28;19922;-68
2021/10/25 12:32:59;;;;;;;;;;;10.90;99.90;;;;;;5070510;28;19916;-68
2021/10/25 12:35:29;;;;;;;;;;;10.90;99.90;;;;;;5054204;28;19928;-68
2021/10/25 12:37:59;;;;;;;;;;;11.00;99.90;;;;;;5070596;28;20354;-68
2021/10/25 12:40:24;;;;;;;;;;;10.90;99.90;;;;;;5070310;28;19994;-68
2021/10/25 12:42:50;;;;;;;;;;;11.00;99.90;;;;;;5074081;28;19964;-68
2021/10/25 12:45:19;;;;;;;;;;;11.00;99.90;;;;;;5077228;28;20276;-68
2021/10/25 12:47:46;;;;;;;;;;;11.00;99.90;;;;;;5077162;28;20016;-68
2021/10/25 12:50:15;;;;;;;;;;;11.00;99.90;;;;;;5077019;28;20346;-68
2021/10/25 12:52:42;;;;;;;;;;;11.00;99.90;;;;;;5060260;28;19921;-68
2021/10/25 12:55:07;;;;;;;;;;;11.00;99.90;;;;;;5076926;28;20376;-68
2021/10/25 12:57:34;;;;;;;;;;;11.10;99.90;;;;;;5076922;28;19956;-68
2021/10/25 13:00:07;;;;;;;;;;;11.10;99.90;;;;;;5076901;28;19951;-68
2021/10/25 13:02:38;;;;;;;;;;;11.10;99.90;;;;;;5077445;28;19925;-68
2021/10/25 13:05:08;;;;;;;;;;;11.10;99.90;;;;;;5078389;28;19924;-68
2021/10/25 13:07:34;;;;;;;;;;;11.10;99.90;;;;;;5077046;28;20269;-68
2021/10/25 13:09:59;;;;;;;;;;;11.20;99.90;;;;;;5077146;28;19920;-68
2021/10/25 13:12:25;;;;;;;;;;;11.20;99.90;;;;;;5078204;28;19924;-68
2021/10/25 13:14:51;;;;;;;;;;;11.20;99.90;;;;;;5076899;28;19916;-68
2021/10/25 13:17:18;;;;;;;;;;;11.30;99.90;;;;;;5076848;28;19916;-68
2021/10/25 13:19:43;;;;;;;;;;;11.40;99.90;;;;;;5076746;28;20361;-68
2021/10/25 13:22:09;;;;;;;;;;;11.40;99.90;;;;;;5076663;28;19920;-68
2021/10/25 13:24:34;;;;;;;;;;;11.50;99.90;;;;;;5076744;28;19916;-68
2021/10/25 13:27:00;;;;;;;;;;;11.60;99.90;;;;;;5076901;28;19924;-68
2021/10/25 13:29:25;;;;;;;;;;;11.60;99.90;;;;;;5076974;28;20543;-68
2021/10/25 13:31:51;;;;;;;;;;;11.60;99.90;;;;;;5077207;28;19963;-68
2021/10/25 13:34:18;;;;;;;;;;;11.60;99.90;;;;;;5076909;28;19924;-68
2021/10/25 13:36:44;;;;;;;;;;;11.60;99.90;;;;;;5077080;28;20278;-68
2021/10/25 13:39:11;;;;;;;;;;;11.60;99.90;;;;;;5076661;28;19978;-68
2021/10/25 13:41:37;;;;;;;;;;;11.60;99.90;;;;;;5076698;28;19997;-68
2021/10/25 13:44:02;;;;;;;;;;;11.70;99.90;;;;;;5078042;28;20672;-68
2021/10/25 13:46:28;;;;;;;;;;;11.60;99.90;;;;;;5076527;28;19927;-68
2021/10/25 13:48:53;;;;;;;;;;;11.60;99.90;;;;;;5076804;28;19920;-68
2021/10/25 13:51:19;;;;;;;;;;;11.60;99.90;;;;;;5076492;28;19942;-68
2021/10/25 13:53:44;;;;;;;;;;;11.60;99.90;;;;;;5074936;28;19989;-68
2021/10/25 13:56:10;;;;;;;;;;;11.50;99.90;;;;;;5073472;28;20029;-68
2021/10/25 13:58:35;;;;;;;;;;;11.50;99.90;;;;;;5073280;28;20003;-68
2021/10/25 14:01:02;;;;;;;;;;;11.50;99.90;;;;;;5073291;28;19975;-68
2021/10/25 14:03:27;;;;;;;;;;;11.50;99.90;;;;;;5073117;28;19916;-68
2021/10/25 14:05:54;;;;;;;;;;;11.50;99.90;;;;;;5073205;28;19923;-68
2021/10/25 14:08:19;;;;;;;;;;;11.50;99.90;;;;;;5074612;28;19916;-69
2021/10/25 14:10:47;;;;;;;;;;;11.40;99.90;;;;;;5072967;28;19969;-68
2021/10/25 14:13:24;;;;;;;;;;;11.40;99.90;;;;;;5073286;28;19938;-69
2021/10/25 14:16:06;;;;;;;;;;;11.40;99.90;;;;;;5072840;28;19917;-68
2021/10/25 14:18:32;;;;;;;;;;;11.40;99.90;;;;;;5073041;28;19920;-68
2021/10/25 14:20:57;;;;;;;;;;;11.40;99.90;;;;;;5072775;28;19951;-68
2021/10/25 14:23:23;;;;;;;;;;;11.30;99.90;;;;;;5072741;28;20259;-68
2021/10/25 14:25:48;;;;;;;;;;;11.30;99.90;;;;;;5056093;28;19951;-68
2021/10/25 14:28:14;;;;;;;;;;;11.40;99.90;;;;;;5072877;28;19922;-68
2021/10/25 14:30:39;;;;;;;;;;;11.50;99.90;;;;;;5072995;28;20379;-68
2021/10/25 14:33:07;;;;;;;;;;;11.60;99.90;;;;;;5072792;28;19928;-68
2021/10/25 14:35:32;;;;;;;;;;;11.60;99.90;;;;;;5072572;28;19916;-68
2021/10/25 14:37:59;;;;;;;;;;;11.70;99.90;;;;;;5072912;28;20010;-68
2021/10/25 14:40:39;;;;;;;;;;;11.70;99.90;;;;;;5072338;28;19973;-68
2021/10/25 14:43:11;;;;;;;;;;;11.70;99.90;;;;;;5073874;28;19962;-68
2021/10/25 14:45:36;;;;;;;;;;;11.70;99.90;;;;;;5072311;28;19981;-68
2021/10/25 14:53:32;;;;;;;;;;;11.70;99.90;;;;;;5072392;28;19926;-68
2021/10/25 14:56:00;;;;;;;;;;;11.60;99.90;;;;;;5072071;28;19939;-68
2021/10/25 14:58:27;;;;;;;;;;;11.70;99.90;;;;;;5072776;28;20011;-68
2021/10/25 15:00:53;;;;;;;;;;;11.60;99.90;;;;;;5072109;28;19927;-68
2021/10/25 15:03:21;;;;;;;;;;;11.60;99.90;;;;;;5072283;28;19916;-68
2021/10/25 15:05:47;;;;;;;;;;;11.60;99.90;;;;;;5054618;28;20340;-68
2021/10/25 15:08:12;;;;;;;;;;;11.60;99.90;;;;;;5055266;28;19952;-68
2021/10/25 15:10:37;;;;;;;;;;;11.50;99.90;;;;;;5073363;28;20112;-68
2021/10/25 15:13:03;;;;;;;;;;;11.50;99.90;;;;;;5073271;28;19920;-68
2021/10/25 15:15:29;;;;;;;;;;;11.50;99.90;;;;;;5073331;28;19966;-68
2021/10/25 15:17:54;;;;;;;;;;;11.50;99.90;;;;;;5071946;28;19962;-68
2021/10/25 15:20:20;;;;;;;;;;;11.40;99.90;;;;;;5071772;28;19920;-68
2021/10/25 15:22:46;;;;;;;;;;;11.40;99.90;;;;;;5071702;28;19924;-68
2021/10/25 15:25:14;;;;;;;;;;;11.40;99.90;;;;;;5072088;28;19923;-68
2021/10/25 15:27:42;;;;;;;;;;;11.40;99.90;;;;;;5071520;28;19927;-68
2021/10/25 15:30:08;;;;;;;;;;;11.30;99.90;;;;;;5071533;28;20366;-68
2021/10/25 15:32:34;;;;;;;;;;;11.30;99.90;;;;;;5071487;28;19926;-68
2021/10/25 15:35:01;;;;;;;;;;;11.30;99.90;;;;;;5071624;28;19920;-68
2021/10/25 15:37:27;;;;;;;;;;;11.30;99.90;;;;;;5072975;28;19959;-68
2021/10/25 15:39:53;;;;;;;;;;;11.30;99.90;;;;;;5071364;28;19920;-68
2021/10/25 15:42:20;;;;;;;;;;;11.30;99.90;;;;;;5071765;28;19923;-68
2021/10/25 15:44:46;;;;;;;;;;;11.30;99.90;;;;;;5072703;28;19920;-68
2021/10/25 15:47:12;;;;;;;;;;;11.30;99.90;;;;;;5072733;28;19943;-68
2021/10/25 15:49:38;;;;;;;;;;;11.30;99.90;;;;;;5071120;28;20015;-68
2021/10/25 15:52:03;;;;;;;;;;;11.20;99.90;;;;;;5070803;28;20003;-68
2021/10/25 15:54:31;;;;;;;;;;;11.20;99.90;;;;;;5070949;28;19927;-68
2021/10/25 15:56:57;;;;;;;;;;;11.20;99.90;;;;;;5070985;28;20433;-68
2021/10/25 15:59:23;;;;;;;;;;;11.30;99.90;;;;;;5054437;28;19926;-68